sensor_id;sensor_type;location;lat;lon;timestamp;P1;durP1;ratioP1;P2;durP2;ratioP2
14080;SDS011;7116;52.152;5.392;2023-03-01T00:01:24;11.57;;;7.47;;
14080;SDS011;7116;52.152;5.392;2023-03-01T00:03:50;14.30;;;8.77;;
14080;SDS011;7116;52.152;5.392;2023-03-01T00:06:15;17.35;;;8.68;;
14080;SDS011;7116;52.152;5.392;2023-03-01T00:08:41;12.20;;;7.90;;
14080;SDS011;7116;52.152;5.392;2023-03-01T00:11:16;14.60;;;9.17;;
14080;SDS011;7116;52.152;5.392;2023-03-01T00:13:42;11.38;;;8.23;;
14080;SDS011;7116;52.152;5.392;2023-03-01T00:16:08;14.90;;;8.43;;
14080;SDS011;7116;52.152;5.392;2023-03-01T00:18:34;11.60;;;8.07;;
14080;SDS011;7116;52.152;5.392;2023-03-01T00:20:59;12.43;;;8.60;;
14080;SDS011;7116;52.152;5.392;2023-03-01T00:23:24;10.77;;;8.30;;
14080;SDS011;7116;52.152;5.392;2023-03-01T00:25:50;11.47;;;7.93;;
14080;SDS011;7116;52.152;5.392;2023-03-01T00:28:16;12.85;;;7.82;;
14080;SDS011;7116;52.152;5.392;2023-03-01T00:30:41;11.18;;;8.20;;
14080;SDS011;7116;52.152;5.392;2023-03-01T00:33:06;11.37;;;7.83;;
14080;SDS011;7116;52.152;5.392;2023-03-01T00:35:32;11.67;;;7.53;;
14080;SDS011;7116;52.152;5.392;2023-03-01T00:37:58;11.50;;;8.05;;
14080;SDS011;7116;52.152;5.392;2023-03-01T00:40:24;11.63;;;8.45;;
14080;SDS011;7116;52.152;5.392;2023-03-01T00:42:49;15.10;;;9.18;;
14080;SDS011;7116;52.152;5.392;2023-03-01T00:45:15;13.33;;;9.27;;
14080;SDS011;7116;52.152;5.392;2023-03-01T00:47:40;10.93;;;8.13;;
14080;SDS011;7116;52.152;5.392;2023-03-01T00:50:06;13.47;;;8.43;;
14080;SDS011;7116;52.152;5.392;2023-03-01T00:52:31;10.75;;;8.15;;
14080;SDS011;7116;52.152;5.392;2023-03-01T00:54:56;12.93;;;8.27;;
14080;SDS011;7116;52.152;5.392;2023-03-01T00:57:22;11.60;;;8.23;;
14080;SDS011;7116;52.152;5.392;2023-03-01T00:59:48;13.57;;;8.17;;
14080;SDS011;7116;52.152;5.392;2023-03-01T01:02:13;12.37;;;8.27;;
14080;SDS011;7116;52.152;5.392;2023-03-01T01:04:38;12.93;;;8.03;;
14080;SDS011;7116;52.152;5.392;2023-03-01T01:07:03;11.63;;;7.80;;
14080;SDS011;7116;52.152;5.392;2023-03-01T01:09:28;13.27;;;7.40;;
14080;SDS011;7116;52.152;5.392;2023-03-01T01:11:53;9.47;;;7.30;;
14080;SDS011;7116;52.152;5.392;2023-03-01T01:14:19;10.13;;;7.77;;
14080;SDS011;7116;52.152;5.392;2023-03-01T01:16:44;13.63;;;8.97;;
14080;SDS011;7116;52.152;5.392;2023-03-01T01:19:13;13.03;;;8.30;;
14080;SDS011;7116;52.152;5.392;2023-03-01T01:21:38;12.60;;;8.52;;
14080;SDS011;7116;52.152;5.392;2023-03-01T01:24:03;13.83;;;9.50;;
14080;SDS011;7116;52.152;5.392;2023-03-01T01:26:30;10.82;;;7.65;;
14080;SDS011;7116;52.152;5.392;2023-03-01T01:28:56;12.00;;;7.63;;
14080;SDS011;7116;52.152;5.392;2023-03-01T01:31:21;11.45;;;8.18;;
14080;SDS011;7116;52.152;5.392;2023-03-01T01:33:48;10.45;;;8.20;;
14080;SDS011;7116;52.152;5.392;2023-03-01T01:36:13;17.20;;;8.90;;
14080;SDS011;7116;52.152;5.392;2023-03-01T01:38:39;14.77;;;8.77;;
14080;SDS011;7116;52.152;5.392;2023-03-01T01:41:05;15.27;;;8.73;;
14080;SDS011;7116;52.152;5.392;2023-03-01T01:43:33;13.73;;;9.40;;
14080;SDS011;7116;52.152;5.392;2023-03-01T01:46:21;10.77;;;8.15;;
14080;SDS011;7116;52.152;5.392;2023-03-01T01:48:48;11.70;;;7.77;;
14080;SDS011;7116;52.152;5.392;2023-03-01T01:51:23;12.25;;;8.27;;
14080;SDS011;7116;52.152;5.392;2023-03-01T01:53:51;11.85;;;8.60;;
14080;SDS011;7116;52.152;5.392;2023-03-01T01:56:17;12.15;;;8.57;;
14080;SDS011;7116;52.152;5.392;2023-03-01T01:58:43;11.20;;;8.50;;
14080;SDS011;7116;52.152;5.392;2023-03-01T02:01:09;11.90;;;8.53;;
14080;SDS011;7116;52.152;5.392;2023-03-01T02:03:36;15.77;;;8.52;;
14080;SDS011;7116;52.152;5.392;2023-03-01T02:06:10;12.45;;;8.98;;
14080;SDS011;7116;52.152;5.392;2023-03-01T02:08:37;14.35;;;9.10;;
14080;SDS011;7116;52.152;5.392;2023-03-01T02:11:03;12.18;;;8.90;;
14080;SDS011;7116;52.152;5.392;2023-03-01T02:13:33;10.60;;;7.67;;
14080;SDS011;7116;52.152;5.392;2023-03-01T02:15:59;15.00;;;8.25;;
14080;SDS011;7116;52.152;5.392;2023-03-01T02:18:27;12.73;;;9.00;;
14080;SDS011;7116;52.152;5.392;2023-03-01T02:20:59;16.00;;;8.67;;
14080;SDS011;7116;52.152;5.392;2023-03-01T02:23:25;11.20;;;8.25;;
14080;SDS011;7116;52.152;5.392;2023-03-01T02:25:52;12.97;;;9.90;;
14080;SDS011;7116;52.152;5.392;2023-03-01T02:28:31;13.80;;;9.88;;
14080;SDS011;7116;52.152;5.392;2023-03-01T02:30:56;14.60;;;9.20;;
14080;SDS011;7116;52.152;5.392;2023-03-01T02:33:40;13.75;;;9.15;;
14080;SDS011;7116;52.152;5.392;2023-03-01T02:36:11;12.55;;;9.05;;
14080;SDS011;7116;52.152;5.392;2023-03-01T02:38:38;14.02;;;9.68;;
14080;SDS011;7116;52.152;5.392;2023-03-01T02:41:03;12.20;;;9.60;;
14080;SDS011;7116;52.152;5.392;2023-03-01T02:43:30;16.30;;;10.10;;
14080;SDS011;7116;52.152;5.392;2023-03-01T02:45:57;12.25;;;9.25;;
14080;SDS011;7116;52.152;5.392;2023-03-01T02:48:22;15.02;;;9.32;;
14080;SDS011;7116;52.152;5.392;2023-03-01T02:50:52;12.67;;;9.07;;
14080;SDS011;7116;52.152;5.392;2023-03-01T02:55:58;12.80;;;9.55;;
14080;SDS011;7116;52.152;5.392;2023-03-01T02:58:24;14.32;;;9.18;;
14080;SDS011;7116;52.152;5.392;2023-03-01T03:00:49;15.17;;;10.53;;
14080;SDS011;7116;52.152;5.392;2023-03-01T03:03:16;15.75;;;9.77;;
14080;SDS011;7116;52.152;5.392;2023-03-01T03:05:41;12.80;;;9.30;;
14080;SDS011;7116;52.152;5.392;2023-03-01T03:08:07;14.88;;;9.48;;
14080;SDS011;7116;52.152;5.392;2023-03-01T03:10:34;14.50;;;9.67;;
14080;SDS011;7116;52.152;5.392;2023-03-01T03:13:01;19.00;;;10.25;;
14080;SDS011;7116;52.152;5.392;2023-03-01T03:15:26;12.93;;;9.27;;
14080;SDS011;7116;52.152;5.392;2023-03-01T03:17:52;13.20;;;9.75;;
14080;SDS011;7116;52.152;5.392;2023-03-01T03:20:19;14.07;;;9.45;;
14080;SDS011;7116;52.152;5.392;2023-03-01T03:22:45;14.03;;;9.50;;
14080;SDS011;7116;52.152;5.392;2023-03-01T03:25:11;12.77;;;9.82;;
14080;SDS011;7116;52.152;5.392;2023-03-01T03:27:39;12.97;;;10.13;;
14080;SDS011;7116;52.152;5.392;2023-03-01T03:30:05;18.40;;;16.48;;
14080;SDS011;7116;52.152;5.392;2023-03-01T03:32:34;13.70;;;10.23;;
14080;SDS011;7116;52.152;5.392;2023-03-01T03:35:00;12.45;;;9.55;;
14080;SDS011;7116;52.152;5.392;2023-03-01T03:37:25;15.87;;;10.73;;
14080;SDS011;7116;52.152;5.392;2023-03-01T03:40:09;11.40;;;8.68;;
14080;SDS011;7116;52.152;5.392;2023-03-01T03:42:40;10.97;;;8.77;;
14080;SDS011;7116;52.152;5.392;2023-03-01T03:45:05;14.30;;;10.70;;
14080;SDS011;7116;52.152;5.392;2023-03-01T03:47:30;12.48;;;9.38;;
14080;SDS011;7116;52.152;5.392;2023-03-01T03:49:55;14.13;;;9.27;;
14080;SDS011;7116;52.152;5.392;2023-03-01T03:52:21;12.27;;;9.63;;
14080;SDS011;7116;52.152;5.392;2023-03-01T03:54:46;11.80;;;9.57;;
14080;SDS011;7116;52.152;5.392;2023-03-01T03:57:11;13.17;;;10.07;;
14080;SDS011;7116;52.152;5.392;2023-03-01T03:59:36;12.80;;;9.23;;
14080;SDS011;7116;52.152;5.392;2023-03-01T04:02:02;13.60;;;10.50;;
14080;SDS011;7116;52.152;5.392;2023-03-01T04:04:27;11.50;;;8.87;;
14080;SDS011;7116;52.152;5.392;2023-03-01T04:06:52;12.13;;;9.80;;
14080;SDS011;7116;52.152;5.392;2023-03-01T04:09:17;14.60;;;11.10;;
14080;SDS011;7116;52.152;5.392;2023-03-01T04:11:42;15.03;;;10.73;;
14080;SDS011;7116;52.152;5.392;2023-03-01T04:14:08;12.63;;;9.20;;
14080;SDS011;7116;52.152;5.392;2023-03-01T04:16:33;10.07;;;8.60;;
14080;SDS011;7116;52.152;5.392;2023-03-01T04:18:58;14.57;;;9.67;;
14080;SDS011;7116;52.152;5.392;2023-03-01T04:21:25;11.73;;;9.53;;
14080;SDS011;7116;52.152;5.392;2023-03-01T04:23:50;12.33;;;9.53;;
14080;SDS011;7116;52.152;5.392;2023-03-01T04:26:17;14.98;;;10.10;;
14080;SDS011;7116;52.152;5.392;2023-03-01T04:28:42;11.83;;;9.20;;
14080;SDS011;7116;52.152;5.392;2023-03-01T04:31:11;12.25;;;9.60;;
14080;SDS011;7116;52.152;5.392;2023-03-01T04:33:47;13.15;;;10.07;;
14080;SDS011;7116;52.152;5.392;2023-03-01T04:36:13;11.77;;;10.40;;
14080;SDS011;7116;52.152;5.392;2023-03-01T04:38:39;13.25;;;10.20;;
14080;SDS011;7116;52.152;5.392;2023-03-01T04:41:05;12.43;;;9.77;;
14080;SDS011;7116;52.152;5.392;2023-03-01T04:43:31;13.63;;;10.80;;
14080;SDS011;7116;52.152;5.392;2023-03-01T04:46:03;16.10;;;10.50;;
14080;SDS011;7116;52.152;5.392;2023-03-01T04:48:29;14.63;;;10.73;;
14080;SDS011;7116;52.152;5.392;2023-03-01T04:50:54;17.70;;;10.25;;
14080;SDS011;7116;52.152;5.392;2023-03-01T04:53:19;11.80;;;9.03;;
14080;SDS011;7116;52.152;5.392;2023-03-01T04:55:45;14.23;;;10.00;;
14080;SDS011;7116;52.152;5.392;2023-03-01T04:58:10;14.00;;;9.97;;
14080;SDS011;7116;52.152;5.392;2023-03-01T05:00:35;14.80;;;11.17;;
14080;SDS011;7116;52.152;5.392;2023-03-01T05:03:00;15.70;;;10.07;;
14080;SDS011;7116;52.152;5.392;2023-03-01T05:05:27;12.80;;;9.43;;
14080;SDS011;7116;52.152;5.392;2023-03-01T05:07:54;11.48;;;8.70;;
14080;SDS011;7116;52.152;5.392;2023-03-01T05:10:19;14.07;;;10.30;;
14080;SDS011;7116;52.152;5.392;2023-03-01T05:12:44;12.63;;;10.00;;
14080;SDS011;7116;52.152;5.392;2023-03-01T05:15:10;16.30;;;10.73;;
14080;SDS011;7116;52.152;5.392;2023-03-01T05:17:35;15.70;;;10.13;;
14080;SDS011;7116;52.152;5.392;2023-03-01T05:20:00;14.67;;;10.43;;
14080;SDS011;7116;52.152;5.392;2023-03-01T05:22:26;16.70;;;11.13;;
14080;SDS011;7116;52.152;5.392;2023-03-01T05:24:51;14.75;;;11.25;;
14080;SDS011;7116;52.152;5.392;2023-03-01T05:27:18;14.07;;;10.15;;
14080;SDS011;7116;52.152;5.392;2023-03-01T05:29:47;14.05;;;10.52;;
14080;SDS011;7116;52.152;5.392;2023-03-01T05:32:12;17.07;;;11.60;;
14080;SDS011;7116;52.152;5.392;2023-03-01T05:34:40;13.77;;;11.02;;
14080;SDS011;7116;52.152;5.392;2023-03-01T05:37:05;15.57;;;9.97;;
14080;SDS011;7116;52.152;5.392;2023-03-01T05:39:32;14.48;;;10.75;;
14080;SDS011;7116;52.152;5.392;2023-03-01T05:41:58;12.00;;;10.50;;
14080;SDS011;7116;52.152;5.392;2023-03-01T05:44:24;17.25;;;10.65;;
14080;SDS011;7116;52.152;5.392;2023-03-01T05:46:50;15.43;;;10.73;;
14080;SDS011;7116;52.152;5.392;2023-03-01T05:49:15;17.73;;;11.63;;
14080;SDS011;7116;52.152;5.392;2023-03-01T05:51:41;13.50;;;11.10;;
14080;SDS011;7116;52.152;5.392;2023-03-01T05:54:06;16.17;;;10.57;;
14080;SDS011;7116;52.152;5.392;2023-03-01T05:56:32;14.50;;;11.60;;
14080;SDS011;7116;52.152;5.392;2023-03-01T05:58:57;18.10;;;10.95;;
14080;SDS011;7116;52.152;5.392;2023-03-01T06:01:23;17.43;;;11.63;;
14080;SDS011;7116;52.152;5.392;2023-03-01T06:03:48;18.03;;;11.50;;
14080;SDS011;7116;52.152;5.392;2023-03-01T06:06:13;16.67;;;11.43;;
14080;SDS011;7116;52.152;5.392;2023-03-01T06:08:38;18.87;;;11.63;;
14080;SDS011;7116;52.152;5.392;2023-03-01T06:11:03;15.73;;;11.63;;
14080;SDS011;7116;52.152;5.392;2023-03-01T06:13:30;16.33;;;12.00;;
14080;SDS011;7116;52.152;5.392;2023-03-01T06:15:55;16.37;;;11.63;;
14080;SDS011;7116;52.152;5.392;2023-03-01T06:18:21;16.97;;;11.43;;
14080;SDS011;7116;52.152;5.392;2023-03-01T06:20:52;17.33;;;12.00;;
14080;SDS011;7116;52.152;5.392;2023-03-01T06:23:17;17.33;;;10.98;;
14080;SDS011;7116;52.152;5.392;2023-03-01T06:25:42;15.10;;;11.60;;
14080;SDS011;7116;52.152;5.392;2023-03-01T06:28:07;18.37;;;12.00;;
14080;SDS011;7116;52.152;5.392;2023-03-01T06:30:32;15.33;;;11.03;;
14080;SDS011;7116;52.152;5.392;2023-03-01T06:32:58;21.33;;;12.73;;
14080;SDS011;7116;52.152;5.392;2023-03-01T06:35:26;16.33;;;10.60;;
14080;SDS011;7116;52.152;5.392;2023-03-01T06:37:54;16.13;;;11.85;;
14080;SDS011;7116;52.152;5.392;2023-03-01T06:40:19;16.50;;;12.83;;
14080;SDS011;7116;52.152;5.392;2023-03-01T06:42:47;16.23;;;12.00;;
14080;SDS011;7116;52.152;5.392;2023-03-01T06:45:14;15.25;;;11.27;;
14080;SDS011;7116;52.152;5.392;2023-03-01T06:47:39;15.77;;;11.68;;
14080;SDS011;7116;52.152;5.392;2023-03-01T06:50:04;14.63;;;10.60;;
14080;SDS011;7116;52.152;5.392;2023-03-01T06:52:30;25.00;;;11.23;;
14080;SDS011;7116;52.152;5.392;2023-03-01T06:54:55;16.75;;;12.60;;
14080;SDS011;7116;52.152;5.392;2023-03-01T06:57:21;16.80;;;11.97;;
14080;SDS011;7116;52.152;5.392;2023-03-01T06:59:46;17.17;;;11.40;;
14080;SDS011;7116;52.152;5.392;2023-03-01T07:02:12;18.20;;;11.50;;
14080;SDS011;7116;52.152;5.392;2023-03-01T07:04:38;17.45;;;11.60;;
14080;SDS011;7116;52.152;5.392;2023-03-01T07:07:03;16.87;;;12.30;;
14080;SDS011;7116;52.152;5.392;2023-03-01T07:09:28;18.93;;;12.73;;
14080;SDS011;7116;52.152;5.392;2023-03-01T07:11:54;16.23;;;12.10;;
14080;SDS011;7116;52.152;5.392;2023-03-01T07:14:19;19.40;;;13.17;;
14080;SDS011;7116;52.152;5.392;2023-03-01T07:16:45;18.90;;;12.57;;
14080;SDS011;7116;52.152;5.392;2023-03-01T07:19:10;16.45;;;12.13;;
14080;SDS011;7116;52.152;5.392;2023-03-01T07:21:35;17.07;;;10.80;;
14080;SDS011;7116;52.152;5.392;2023-03-01T07:24:02;16.95;;;10.00;;
14080;SDS011;7116;52.152;5.392;2023-03-01T07:26:27;15.40;;;10.70;;
14080;SDS011;7116;52.152;5.392;2023-03-01T07:28:52;21.53;;;10.97;;
14080;SDS011;7116;52.152;5.392;2023-03-01T07:31:18;16.57;;;11.33;;
14080;SDS011;7116;52.152;5.392;2023-03-01T07:33:43;19.60;;;9.83;;
14080;SDS011;7116;52.152;5.392;2023-03-01T07:36:08;16.37;;;9.97;;
14080;SDS011;7116;52.152;5.392;2023-03-01T07:38:34;19.80;;;11.07;;
14080;SDS011;7116;52.152;5.392;2023-03-01T07:40:59;16.30;;;10.27;;
14080;SDS011;7116;52.152;5.392;2023-03-01T07:43:25;16.45;;;9.68;;
14080;SDS011;7116;52.152;5.392;2023-03-01T07:45:50;14.10;;;10.07;;
14080;SDS011;7116;52.152;5.392;2023-03-01T07:48:16;16.95;;;9.95;;
14080;SDS011;7116;52.152;5.392;2023-03-01T07:50:41;13.00;;;9.07;;
14080;SDS011;7116;52.152;5.392;2023-03-01T07:53:06;16.95;;;9.55;;
14080;SDS011;7116;52.152;5.392;2023-03-01T07:55:32;16.33;;;10.00;;
14080;SDS011;7116;52.152;5.392;2023-03-01T07:57:57;18.45;;;8.75;;
14080;SDS011;7116;52.152;5.392;2023-03-01T08:00:22;22.45;;;10.15;;
14080;SDS011;7116;52.152;5.392;2023-03-01T08:02:47;15.97;;;9.77;;
14080;SDS011;7116;52.152;5.392;2023-03-01T08:05:13;13.70;;;9.10;;
14080;SDS011;7116;52.152;5.392;2023-03-01T08:07:38;13.27;;;8.63;;
14080;SDS011;7116;52.152;5.392;2023-03-01T08:10:03;16.73;;;8.87;;
14080;SDS011;7116;52.152;5.392;2023-03-01T08:12:28;13.60;;;9.17;;
14080;SDS011;7116;52.152;5.392;2023-03-01T08:14:54;15.23;;;8.50;;
14080;SDS011;7116;52.152;5.392;2023-03-01T08:17:19;12.97;;;8.37;;
14080;SDS011;7116;52.152;5.392;2023-03-01T08:19:44;14.40;;;8.83;;
14080;SDS011;7116;52.152;5.392;2023-03-01T08:22:11;14.60;;;9.60;;
14080;SDS011;7116;52.152;5.392;2023-03-01T08:24:36;11.77;;;8.52;;
14080;SDS011;7116;52.152;5.392;2023-03-01T08:27:01;9.40;;;7.47;;
14080;SDS011;7116;52.152;5.392;2023-03-01T08:29:27;8.63;;;7.03;;
14080;SDS011;7116;52.152;5.392;2023-03-01T08:31:53;8.13;;;6.00;;
14080;SDS011;7116;52.152;5.392;2023-03-01T08:34:18;10.33;;;6.27;;
14080;SDS011;7116;52.152;5.392;2023-03-01T08:36:44;10.45;;;6.38;;
14080;SDS011;7116;52.152;5.392;2023-03-01T08:39:11;7.70;;;6.13;;
14080;SDS011;7116;52.152;5.392;2023-03-01T08:41:36;8.02;;;6.22;;
14080;SDS011;7116;52.152;5.392;2023-03-01T08:44:02;9.10;;;6.10;;
14080;SDS011;7116;52.152;5.392;2023-03-01T08:46:32;9.30;;;6.00;;
14080;SDS011;7116;52.152;5.392;2023-03-01T08:48:58;8.75;;;6.15;;
14080;SDS011;7116;52.152;5.392;2023-03-01T08:51:24;16.63;;;5.40;;
14080;SDS011;7116;52.152;5.392;2023-03-01T08:53:49;7.80;;;5.67;;
14080;SDS011;7116;52.152;5.392;2023-03-01T08:56:14;8.70;;;5.80;;
14080;SDS011;7116;52.152;5.392;2023-03-01T08:58:43;7.93;;;5.53;;
14080;SDS011;7116;52.152;5.392;2023-03-01T09:01:12;8.95;;;6.15;;
14080;SDS011;7116;52.152;5.392;2023-03-01T09:03:38;9.93;;;5.93;;
14080;SDS011;7116;52.152;5.392;2023-03-01T09:06:03;7.67;;;5.47;;
14080;SDS011;7116;52.152;5.392;2023-03-01T09:08:29;8.27;;;5.68;;
14080;SDS011;7116;52.152;5.392;2023-03-01T09:10:54;9.30;;;4.90;;
14080;SDS011;7116;52.152;5.392;2023-03-01T09:13:20;7.33;;;5.63;;
14080;SDS011;7116;52.152;5.392;2023-03-01T09:15:45;6.53;;;5.33;;
14080;SDS011;7116;52.152;5.392;2023-03-01T09:18:10;8.40;;;5.60;;
14080;SDS011;7116;52.152;5.392;2023-03-01T09:20:35;7.87;;;4.13;;
14080;SDS011;7116;52.152;5.392;2023-03-01T09:23:01;6.87;;;4.83;;
14080;SDS011;7116;52.152;5.392;2023-03-01T09:25:26;6.03;;;4.23;;
14080;SDS011;7116;52.152;5.392;2023-03-01T09:27:51;5.40;;;3.80;;
14080;SDS011;7116;52.152;5.392;2023-03-01T09:30:17;6.93;;;4.75;;
14080;SDS011;7116;52.152;5.392;2023-03-01T09:32:42;6.97;;;4.10;;
14080;SDS011;7116;52.152;5.392;2023-03-01T09:35:10;5.32;;;3.65;;
14080;SDS011;7116;52.152;5.392;2023-03-01T09:37:35;5.97;;;3.80;;
14080;SDS011;7116;52.152;5.392;2023-03-01T09:40:00;6.47;;;3.97;;
14080;SDS011;7116;52.152;5.392;2023-03-01T09:42:27;6.10;;;4.40;;
14080;SDS011;7116;52.152;5.392;2023-03-01T09:44:55;8.40;;;4.20;;
14080;SDS011;7116;52.152;5.392;2023-03-01T09:47:32;5.07;;;4.38;;
14080;SDS011;7116;52.152;5.392;2023-03-01T09:50:00;7.87;;;4.07;;
14080;SDS011;7116;52.152;5.392;2023-03-01T09:55:11;6.15;;;4.00;;
14080;SDS011;7116;52.152;5.392;2023-03-01T09:57:56;8.15;;;4.40;;
14080;SDS011;7116;52.152;5.392;2023-03-01T10:02:52;4.13;;;3.00;;
14080;SDS011;7116;52.152;5.392;2023-03-01T10:05:41;4.53;;;3.10;;
14080;SDS011;7116;52.152;5.392;2023-03-01T10:08:15;5.65;;;2.85;;
14080;SDS011;7116;52.152;5.392;2023-03-01T10:10:44;8.63;;;3.80;;
14080;SDS011;7116;52.152;5.392;2023-03-01T10:13:19;4.40;;;3.22;;
14080;SDS011;7116;52.152;5.392;2023-03-01T10:16:05;4.82;;;2.95;;
14080;SDS011;7116;52.152;5.392;2023-03-01T10:18:34;6.50;;;3.33;;
14080;SDS011;7116;52.152;5.392;2023-03-01T10:21:02;5.82;;;3.03;;
14080;SDS011;7116;52.152;5.392;2023-03-01T10:23:31;4.25;;;3.33;;
14080;SDS011;7116;52.152;5.392;2023-03-01T10:30:47;4.23;;;2.80;;
14080;SDS011;7116;52.152;5.392;2023-03-01T10:35:40;4.85;;;3.35;;
14080;SDS011;7116;52.152;5.392;2023-03-01T10:38:10;5.73;;;3.30;;
14080;SDS011;7116;52.152;5.392;2023-03-01T10:40:36;6.82;;;3.83;;
14080;SDS011;7116;52.152;5.392;2023-03-01T10:43:14;5.23;;;3.27;;
14080;SDS011;7116;52.152;5.392;2023-03-01T10:45:39;5.40;;;3.37;;
14080;SDS011;7116;52.152;5.392;2023-03-01T10:50:37;5.13;;;3.40;;
14080;SDS011;7116;52.152;5.392;2023-03-01T10:53:04;3.92;;;3.08;;
14080;SDS011;7116;52.152;5.392;2023-03-01T10:55:36;4.90;;;2.83;;
14080;SDS011;7116;52.152;5.392;2023-03-01T11:00:33;4.10;;;2.97;;
14080;SDS011;7116;52.152;5.392;2023-03-01T11:03:11;4.28;;;3.05;;
14080;SDS011;7116;52.152;5.392;2023-03-01T11:05:36;5.10;;;3.23;;
14080;SDS011;7116;52.152;5.392;2023-03-01T11:08:02;4.83;;;2.93;;
14080;SDS011;7116;52.152;5.392;2023-03-01T11:10:29;5.13;;;2.95;;
14080;SDS011;7116;52.152;5.392;2023-03-01T11:15:39;2.67;;;2.35;;
14080;SDS011;7116;52.152;5.392;2023-03-01T11:18:04;4.50;;;2.97;;
14080;SDS011;7116;52.152;5.392;2023-03-01T11:20:31;5.70;;;3.30;;
14080;SDS011;7116;52.152;5.392;2023-03-01T11:25:26;5.40;;;3.23;;
14080;SDS011;7116;52.152;5.392;2023-03-01T11:27:52;3.65;;;2.80;;
14080;SDS011;7116;52.152;5.392;2023-03-01T11:30:20;3.63;;;2.83;;
14080;SDS011;7116;52.152;5.392;2023-03-01T11:32:50;4.63;;;2.80;;
14080;SDS011;7116;52.152;5.392;2023-03-01T11:35:19;4.65;;;2.75;;
14080;SDS011;7116;52.152;5.392;2023-03-01T11:37:57;7.00;;;2.90;;
14080;SDS011;7116;52.152;5.392;2023-03-01T11:43:09;4.45;;;2.95;;
14080;SDS011;7116;52.152;5.392;2023-03-01T11:45:47;3.90;;;2.93;;
14080;SDS011;7116;52.152;5.392;2023-03-01T11:56:35;4.28;;;2.75;;
14080;SDS011;7116;52.152;5.392;2023-03-01T11:59:10;5.43;;;3.23;;
14080;SDS011;7116;52.152;5.392;2023-03-01T12:01:44;5.25;;;2.95;;
14080;SDS011;7116;52.152;5.392;2023-03-01T12:07:03;4.45;;;3.55;;
14080;SDS011;7116;52.152;5.392;2023-03-01T12:09:44;4.78;;;3.42;;
14080;SDS011;7116;52.152;5.392;2023-03-01T12:30:41;5.53;;;4.13;;
14080;SDS011;7116;52.152;5.392;2023-03-01T12:33:54;5.95;;;3.83;;
14080;SDS011;7116;52.152;5.392;2023-03-01T12:41:34;4.80;;;3.60;;
14080;SDS011;7116;52.152;5.392;2023-03-01T12:46:41;5.07;;;3.00;;
14080;SDS011;7116;52.152;5.392;2023-03-01T12:49:17;6.35;;;3.88;;
14080;SDS011;7116;52.152;5.392;2023-03-01T12:51:50;5.30;;;3.63;;
14080;SDS011;7116;52.152;5.392;2023-03-01T12:54:20;6.22;;;3.70;;
14080;SDS011;7116;52.152;5.392;2023-03-01T12:56:47;5.47;;;3.60;;
14080;SDS011;7116;52.152;5.392;2023-03-01T13:01:49;5.80;;;4.03;;
14080;SDS011;7116;52.152;5.392;2023-03-01T13:14:58;6.63;;;3.97;;
14080;SDS011;7116;52.152;5.392;2023-03-01T13:17:30;7.97;;;4.63;;
14080;SDS011;7116;52.152;5.392;2023-03-01T13:19:56;6.40;;;3.58;;
14080;SDS011;7116;52.152;5.392;2023-03-01T13:22:27;6.65;;;3.67;;
14080;SDS011;7116;52.152;5.392;2023-03-01T13:25:00;7.18;;;3.85;;
14080;SDS011;7116;52.152;5.392;2023-03-01T13:27:26;6.73;;;4.00;;
14080;SDS011;7116;52.152;5.392;2023-03-01T13:29:57;6.68;;;3.88;;
14080;SDS011;7116;52.152;5.392;2023-03-01T13:32:31;8.98;;;4.18;;
14080;SDS011;7116;52.152;5.392;2023-03-01T13:35:01;5.25;;;3.25;;
14080;SDS011;7116;52.152;5.392;2023-03-01T13:37:30;7.47;;;4.00;;
14080;SDS011;7116;52.152;5.392;2023-03-01T13:39:56;5.07;;;3.50;;
14080;SDS011;7116;52.152;5.392;2023-03-01T13:42:39;7.97;;;4.28;;
14080;SDS011;7116;52.152;5.392;2023-03-01T13:45:12;6.75;;;4.28;;
14080;SDS011;7116;52.152;5.392;2023-03-01T13:47:39;6.63;;;3.83;;
14080;SDS011;7116;52.152;5.392;2023-03-01T13:50:04;8.03;;;4.17;;
14080;SDS011;7116;52.152;5.392;2023-03-01T13:55:00;6.47;;;4.40;;
14080;SDS011;7116;52.152;5.392;2023-03-01T13:57:37;6.82;;;4.20;;
14080;SDS011;7116;52.152;5.392;2023-03-01T14:00:04;7.70;;;4.43;;
14080;SDS011;7116;52.152;5.392;2023-03-01T14:02:30;5.47;;;3.58;;
14080;SDS011;7116;52.152;5.392;2023-03-01T14:04:57;8.93;;;4.93;;
14080;SDS011;7116;52.152;5.392;2023-03-01T14:07:23;7.85;;;4.43;;
14080;SDS011;7116;52.152;5.392;2023-03-01T14:09:55;10.68;;;4.50;;
14080;SDS011;7116;52.152;5.392;2023-03-01T14:12:35;10.27;;;4.33;;
14080;SDS011;7116;52.152;5.392;2023-03-01T14:20:39;8.43;;;4.15;;
14080;SDS011;7116;52.152;5.392;2023-03-01T14:22:58;8.63;;;3.78;;
14080;SDS011;7116;52.152;5.392;2023-03-01T14:25:28;8.68;;;4.40;;
14080;SDS011;7116;52.152;5.392;2023-03-01T14:27:59;9.07;;;4.20;;
14080;SDS011;7116;52.152;5.392;2023-03-01T14:30:36;7.43;;;3.70;;
14080;SDS011;7116;52.152;5.392;2023-03-01T14:33:03;6.28;;;3.80;;
14080;SDS011;7116;52.152;5.392;2023-03-01T14:35:32;5.55;;;3.80;;
14080;SDS011;7116;52.152;5.392;2023-03-01T14:37:57;6.07;;;4.00;;
14080;SDS011;7116;52.152;5.392;2023-03-01T14:40:24;5.07;;;3.43;;
14080;SDS011;7116;52.152;5.392;2023-03-01T14:42:50;6.10;;;3.70;;
14080;SDS011;7116;52.152;5.392;2023-03-01T14:45:15;5.63;;;3.67;;
14080;SDS011;7116;52.152;5.392;2023-03-01T14:47:43;8.23;;;5.18;;
14080;SDS011;7116;52.152;5.392;2023-03-01T14:50:21;6.78;;;4.32;;
14080;SDS011;7116;52.152;5.392;2023-03-01T14:52:47;8.00;;;3.70;;
14080;SDS011;7116;52.152;5.392;2023-03-01T14:55:17;7.20;;;4.50;;
14080;SDS011;7116;52.152;5.392;2023-03-01T14:57:47;6.50;;;4.00;;
14080;SDS011;7116;52.152;5.392;2023-03-01T15:00:23;6.05;;;4.05;;
14080;SDS011;7116;52.152;5.392;2023-03-01T15:02:50;6.03;;;4.28;;
14080;SDS011;7116;52.152;5.392;2023-03-01T15:05:16;5.57;;;4.07;;
14080;SDS011;7116;52.152;5.392;2023-03-01T15:07:43;6.18;;;4.57;;
14080;SDS011;7116;52.152;5.392;2023-03-01T15:10:19;5.17;;;3.97;;
14080;SDS011;7116;52.152;5.392;2023-03-01T15:12:45;7.28;;;4.18;;
14080;SDS011;7116;52.152;5.392;2023-03-01T15:16:11;6.20;;;4.30;;
14080;SDS011;7116;52.152;5.392;2023-03-01T15:18:11;9.20;;;4.10;;
14080;SDS011;7116;52.152;5.392;2023-03-01T15:20:37;7.00;;;4.05;;
14080;SDS011;7116;52.152;5.392;2023-03-01T15:23:03;6.40;;;4.40;;
14080;SDS011;7116;52.152;5.392;2023-03-01T15:25:29;6.07;;;3.73;;
14080;SDS011;7116;52.152;5.392;2023-03-01T15:27:55;7.27;;;4.23;;
14080;SDS011;7116;52.152;5.392;2023-03-01T15:30:22;7.18;;;3.85;;
14080;SDS011;7116;52.152;5.392;2023-03-01T15:32:48;6.28;;;4.32;;
14080;SDS011;7116;52.152;5.392;2023-03-01T15:37:58;7.65;;;4.43;;
14080;SDS011;7116;52.152;5.392;2023-03-01T15:42:57;8.68;;;4.10;;
14080;SDS011;7116;52.152;5.392;2023-03-01T15:45:24;6.57;;;4.63;;
14080;SDS011;7116;52.152;5.392;2023-03-01T15:47:51;7.05;;;4.05;;
14080;SDS011;7116;52.152;5.392;2023-03-01T15:50:21;6.22;;;4.38;;
14080;SDS011;7116;52.152;5.392;2023-03-01T15:52:47;6.65;;;4.15;;
14080;SDS011;7116;52.152;5.392;2023-03-01T15:55:16;6.30;;;4.27;;
14080;SDS011;7116;52.152;5.392;2023-03-01T15:57:42;7.10;;;4.35;;
14080;SDS011;7116;52.152;5.392;2023-03-01T16:00:11;6.87;;;4.27;;
14080;SDS011;7116;52.152;5.392;2023-03-01T16:02:38;8.17;;;4.67;;
14080;SDS011;7116;52.152;5.392;2023-03-01T16:05:03;6.00;;;4.45;;
14080;SDS011;7116;52.152;5.392;2023-03-01T16:07:29;6.40;;;4.70;;
14080;SDS011;7116;52.152;5.392;2023-03-01T16:09:56;7.38;;;4.47;;
14080;SDS011;7116;52.152;5.392;2023-03-01T16:12:21;9.03;;;4.77;;
14080;SDS011;7116;52.152;5.392;2023-03-01T16:14:46;9.50;;;4.93;;
14080;SDS011;7116;52.152;5.392;2023-03-01T16:17:13;6.88;;;5.22;;
14080;SDS011;7116;52.152;5.392;2023-03-01T16:19:38;5.67;;;4.07;;
14080;SDS011;7116;52.152;5.392;2023-03-01T16:22:04;8.60;;;5.63;;
14080;SDS011;7116;52.152;5.392;2023-03-01T16:24:29;8.87;;;4.80;;